Time;durP1;ratioP1;P1;durP2;ratioP2;P2;SDS_P1;SDS_P2;PMS_P1;PMS_P2;Temp;Humidity;BMP_temperature;BMP_pressure;BME280_temperature;BME280_humidity;BME280_pressure;Samples;Min_cycle;Max_cycle;Signal;HPM_P1;HPM_P2
2024/02/17 00:00:43;;;;;;;75.30;42.72;;;;;;;;;;13175932;22;20377;-88
2024/02/17 00:05:46;;;;;;;80.97;43.33;;;;;;;;;;13176242;22;20361;-88
2024/02/17 00:10:48;;;;;;;76.97;41.95;;;;;;;;;;13176335;22;20442;-89
2024/02/17 00:15:52;;;;;;;78.63;42.60;;;;;;;;;;13177586;22;20358;-89
2024/02/17 00:20:57;;;;;;;76.65;41.28;;;;;;;;;;13176103;22;20405;-88
2024/02/17 00:25:59;;;;;;;78.85;41.63;;;;;;;;;;13177235;22;20354;-89
2024/02/17 00:31:03;;;;;;;73.00;42.25;;;;;;;;;;13180068;22;20365;-89
2024/02/17 00:36:06;;;;;;;78.63;43.90;;;;;;;;;;13203261;22;20430;-89
2024/02/17 00:41:08;;;;;;;73.53;43.33;;;;;;;;;;13179674;22;20400;-89
2024/02/17 00:46:12;;;;;;;79.30;43.10;;;;;;;;;;13182138;22;20414;-89
2024/02/17 00:51:15;;;;;;;76.97;43.47;;;;;;;;;;13180280;22;20391;-89
2024/02/17 00:56:21;;;;;;;81.15;42.00;;;;;;;;;;13180843;22;20395;-89
2024/02/17 01:01:26;;;;;;;88.53;48.80;;;;;;;;;;13180288;22;20439;-88
2024/02/17 01:06:28;;;;;;;96.80;50.77;;;;;;;;;;13181220;22;20410;-88
2024/02/17 01:11:30;;;;;;;79.60;45.60;;;;;;;;;;13180817;22;20810;-89
2024/02/17 01:16:34;;;;;;;72.88;41.13;;;;;;;;;;13180175;22;20362;-89
2024/02/17 01:21:36;;;;;;;70.33;40.53;;;;;;;;;;13180298;22;20442;-89
2024/02/17 01:26:39;;;;;;;65.28;39.08;;;;;;;;;;13180158;22;20361;-89
2024/02/17 01:31:43;;;;;;;61.95;37.10;;;;;;;;;;13180023;22;20361;-90
2024/02/17 01:36:45;;;;;;;62.85;39.15;;;;;;;;;;13181471;22;20362;-88
2024/02/17 01:41:48;;;;;;;64.73;38.73;;;;;;;;;;13179837;22;20377;-89
2024/02/17 01:46:53;;;;;;;61.95;36.50;;;;;;;;;;13180446;22;20361;-89
2024/02/17 01:51:56;;;;;;;67.55;38.42;;;;;;;;;;13178982;22;20362;-89
2024/02/17 01:57:00;;;;;;;61.80;35.70;;;;;;;;;;13178916;22;20366;-89
2024/02/17 02:02:05;;;;;;;62.00;35.95;;;;;;;;;;13178290;22;20374;-89
2024/02/17 02:07:08;;;;;;;59.92;36.00;;;;;;;;;;13178679;22;20438;-89
2024/02/17 02:12:10;;;;;;;56.65;36.00;;;;;;;;;;13179428;22;20357;-89
2024/02/17 02:17:14;;;;;;;64.55;37.72;;;;;;;;;;13179287;22;20354;-89
2024/02/17 02:22:16;;;;;;;58.92;35.92;;;;;;;;;;13179100;22;20377;-89
2024/02/17 02:27:20;;;;;;;64.80;36.42;;;;;;;;;;13179571;22;20357;-89
2024/02/17 02:32:25;;;;;;;64.97;38.15;;;;;;;;;;13179570;22;20361;-89
2024/02/17 02:37:28;;;;;;;66.45;37.42;;;;;;;;;;13201023;22;20674;-89
2024/02/17 02:42:32;;;;;;;71.30;38.58;;;;;;;;;;13179127;22;20407;-89
2024/02/17 02:47:34;;;;;;;70.70;38.30;;;;;;;;;;13178844;22;20389;-89
2024/02/17 02:52:36;;;;;;;75.43;39.15;;;;;;;;;;13178038;22;20423;-89
2024/02/17 02:57:40;;;;;;;69.22;35.58;;;;;;;;;;13170735;22;20374;-89
2024/02/17 03:02:42;;;;;;;74.47;37.57;;;;;;;;;;13174807;22;20503;-89
2024/02/17 03:07:45;;;;;;;70.67;37.13;;;;;;;;;;13175992;22;20438;-89
2024/02/17 03:12:49;;;;;;;68.82;35.78;;;;;;;;;;13171033;22;20350;-89
2024/02/17 03:17:51;;;;;;;67.53;36.97;;;;;;;;;;13170633;22;20374;-89
2024/02/17 03:22:54;;;;;;;76.03;37.63;;;;;;;;;;13172897;22;20868;-89
2024/02/17 03:27:57;;;;;;;73.17;38.73;;;;;;;;;;13177375;22;20390;-89
2024/02/17 03:33:00;;;;;;;73.10;38.00;;;;;;;;;;13178171;22;20362;-89
2024/02/17 03:38:02;;;;;;;74.80;39.28;;;;;;;;;;13177394;22;20426;-89
2024/02/17 03:43:06;;;;;;;82.13;40.23;;;;;;;;;;13177344;22;20377;-89
2024/02/17 03:48:08;;;;;;;81.65;39.45;;;;;;;;;;13177200;22;20833;-89
2024/02/17 03:53:11;;;;;;;73.50;38.33;;;;;;;;;;13177391;22;20350;-90
2024/02/17 03:58:15;;;;;;;67.10;38.15;;;;;;;;;;13177730;22;20353;-89
2024/02/17 04:03:18;;;;;;;76.45;39.80;;;;;;;;;;13172433;22;20396;-90
2024/02/17 04:08:20;;;;;;;77.13;38.47;;;;;;;;;;13177480;22;20374;-89
2024/02/17 04:13:24;;;;;;;63.10;36.28;;;;;;;;;;13175964;22;20361;-89
2024/02/17 04:18:26;;;;;;;68.77;38.50;;;;;;;;;;13176200;22;20433;-90
2024/02/17 04:23:29;;;;;;;65.85;37.17;;;;;;;;;;13199469;22;20835;-90
2024/02/17 04:28:33;;;;;;;72.45;36.67;;;;;;;;;;13173717;22;20462;-90
2024/02/17 04:33:37;;;;;;;63.63;35.05;;;;;;;;;;13175317;22;20414;-89
2024/02/17 04:38:40;;;;;;;63.67;37.50;;;;;;;;;;13179979;22;20361;-89
2024/02/17 04:43:45;;;;;;;65.63;37.90;;;;;;;;;;13202490;22;20406;-89
2024/02/17 04:48:48;;;;;;;62.33;36.70;;;;;;;;;;13180317;22;20484;-89
2024/02/17 04:53:50;;;;;;;67.80;38.10;;;;;;;;;;13180557;22;20449;-89
2024/02/17 04:58:54;;;;;;;69.00;38.15;;;;;;;;;;13180817;22;20381;-89
2024/02/17 05:03:56;;;;;;;66.43;37.40;;;;;;;;;;13176611;22;20374;-89
2024/02/17 05:08:59;;;;;;;66.97;38.95;;;;;;;;;;13179931;22;20358;-89
2024/02/17 05:14:03;;;;;;;63.07;37.10;;;;;;;;;;13175254;22;20437;-89
2024/02/17 05:19:05;;;;;;;58.22;35.00;;;;;;;;;;13174691;22;20353;-89
2024/02/17 05:24:07;;;;;;;59.47;35.88;;;;;;;;;;13180051;22;20404;-89
2024/02/17 05:29:11;;;;;;;58.28;35.22;;;;;;;;;;13180791;22;20833;-89
2024/02/17 05:34:17;;;;;;;62.57;37.00;;;;;;;;;;13180926;22;20440;-90
2024/02/17 05:39:19;;;;;;;64.80;36.55;;;;;;;;;;13179256;22;20354;-89
2024/02/17 05:44:23;;;;;;;61.13;35.95;;;;;;;;;;13178936;22;20438;-89
2024/02/17 05:49:25;;;;;;;59.97;35.58;;;;;;;;;;13180240;22;20370;-89
2024/02/17 05:54:28;;;;;;;58.35;34.97;;;;;;;;;;13178833;22;20427;-89
2024/02/17 05:59:31;;;;;;;53.77;33.93;;;;;;;;;;13179683;22;20358;-89
2024/02/17 06:04:34;;;;;;;56.08;34.70;;;;;;;;;;13176418;22;20381;-89
2024/02/17 06:09:36;;;;;;;55.00;34.03;;;;;;;;;;13178100;22;20387;-88
2024/02/17 06:14:40;;;;;;;58.45;34.83;;;;;;;;;;13171847;22;20434;-88
2024/02/17 06:25:02;;;;;;;54.53;34.20;;;;;;;;;;13200781;22;20464;-88
2024/02/17 06:30:13;;;;;;;55.30;33.30;;;;;;;;;;13177340;22;20410;-88
2024/02/17 06:35:16;;;;;;;57.13;34.55;;;;;;;;;;13178172;22;25068;-88
2024/02/17 06:40:18;;;;;;;50.83;32.25;;;;;;;;;;13175575;22;20357;-88
2024/02/17 06:45:22;;;;;;;51.97;32.37;;;;;;;;;;13178604;22;20377;-87
2024/02/17 06:50:24;;;;;;;50.97;32.45;;;;;;;;;;13176952;22;20381;-88
2024/02/17 06:55:26;;;;;;;49.85;31.63;;;;;;;;;;13177768;22;20358;-87
2024/02/17 07:00:30;;;;;;;54.95;33.53;;;;;;;;;;13174031;22;20362;-91
2024/02/17 07:05:33;;;;;;;59.60;35.10;;;;;;;;;;13174150;22;20377;-88
2024/02/17 07:10:36;;;;;;;59.28;36.38;;;;;;;;;;13170634;22;20412;-88
2024/02/17 07:15:40;;;;;;;65.93;36.30;;;;;;;;;;13168690;22;20353;-88
2024/02/17 07:20:43;;;;;;;61.72;35.47;;;;;;;;;;13169781;22;20855;-87
2024/02/17 07:25:47;;;;;;;57.47;33.78;;;;;;;;;;13187251;22;20377;-88
2024/02/17 07:30:51;;;;;;;60.40;34.22;;;;;;;;;;13183766;22;20357;-88
2024/02/17 07:35:53;;;;;;;55.83;32.73;;;;;;;;;;13177020;22;20388;-87
2024/02/17 07:40:56;;;;;;;59.53;35.30;;;;;;;;;;13176814;22;20423;-89
2024/02/17 07:45:59;;;;;;;62.85;35.58;;;;;;;;;;13176011;22;20373;-90
2024/02/17 07:51:02;;;;;;;63.50;36.58;;;;;;;;;;13174832;22;20388;-86
2024/02/17 07:56:05;;;;;;;69.20;42.00;;;;;;;;;;13176747;22;20354;-88
2024/02/17 08:01:09;;;;;;;61.53;35.60;;;;;;;;;;13201009;22;20395;-93
2024/02/17 08:06:11;;;;;;;61.67;35.47;;;;;;;;;;13173147;22;20929;-90
2024/02/17 08:11:13;;;;;;;60.17;36.03;;;;;;;;;;13189705;22;20398;-92
2024/02/17 08:16:17;;;;;;;62.20;36.30;;;;;;;;;;13168294;22;20983;-91
2024/02/17 08:21:20;;;;;;;62.72;36.80;;;;;;;;;;13169869;22;20816;-92
2024/02/17 08:26:22;;;;;;;63.70;36.67;;;;;;;;;;13197997;22;20365;-93
2024/02/17 08:31:26;;;;;;;62.20;37.00;;;;;;;;;;13177117;22;20387;-92
2024/02/17 08:36:28;;;;;;;65.10;37.42;;;;;;;;;;13197160;22;20365;-92
2024/02/17 08:41:30;;;;;;;64.32;39.00;;;;;;;;;;13181210;22;20430;-92
2024/02/17 08:46:35;;;;;;;64.63;38.73;;;;;;;;;;13172828;22;20418;-91
2024/02/17 08:51:37;;;;;;;65.30;38.80;;;;;;;;;;13176434;22;20361;-92
2024/02/17 08:56:40;;;;;;;68.03;39.28;;;;;;;;;;13181875;22;20365;-92
2024/02/17 09:01:43;;;;;;;65.55;40.05;;;;;;;;;;13243310;22;20382;-92
2024/02/17 09:06:46;;;;;;;61.07;37.10;;;;;;;;;;13241142;22;20437;-92
2024/02/17 09:11:49;;;;;;;67.75;37.08;;;;;;;;;;13261369;22;20356;-92
2024/02/17 09:16:53;;;;;;;67.70;37.77;;;;;;;;;;13237797;22;20389;-92
2024/02/17 09:21:55;;;;;;;70.60;39.47;;;;;;;;;;13238005;22;20669;-92
2024/02/17 09:27:00;;;;;;;73.33;38.27;;;;;;;;;;13242277;22;20380;-91
2024/02/17 09:32:04;;;;;;;73.23;37.40;;;;;;;;;;13264745;22;20418;-91
2024/02/17 09:37:08;;;;;;;71.93;37.83;;;;;;;;;;13268286;22;20381;-93
2024/02/17 09:42:11;;;;;;;63.60;36.70;;;;;;;;;;13243841;22;20345;-91
2024/02/17 09:47:16;;;;;;;64.50;36.47;;;;;;;;;;13243583;22;20436;-92
2024/02/17 09:52:19;;;;;;;67.97;37.53;;;;;;;;;;13244440;22;20433;-91
2024/02/17 09:57:22;;;;;;;68.38;38.60;;;;;;;;;;13242213;22;20420;-92
2024/02/17 10:02:26;;;;;;;69.25;37.75;;;;;;;;;;13239522;22;20360;-91
2024/02/17 10:07:29;;;;;;;66.05;36.97;;;;;;;;;;13261986;22;20368;-92
2024/02/17 10:12:31;;;;;;;70.25;39.95;;;;;;;;;;13262243;22;20842;-93
2024/02/17 10:17:35;;;;;;;71.15;40.13;;;;;;;;;;13242506;22;20360;-92
2024/02/17 10:22:38;;;;;;;69.05;40.10;;;;;;;;;;13248539;22;20363;-85
2024/02/17 10:27:41;;;;;;;72.63;40.20;;;;;;;;;;13256057;22;20653;-84
2024/02/17 10:32:46;;;;;;;74.47;40.90;;;;;;;;;;13239006;22;20364;-85
2024/02/17 10:37:50;;;;;;;79.57;42.87;;;;;;;;;;13258440;22;20360;-86
2024/02/17 10:42:52;;;;;;;71.78;39.13;;;;;;;;;;13234248;22;20416;-86
2024/02/17 10:48:03;;;;;;;72.65;40.05;;;;;;;;;;13232892;22;20985;-85
2024/02/17 10:53:09;;;;;;;67.45;38.20;;;;;;;;;;13234808;22;20356;-87
2024/02/17 10:58:17;;;;;;;70.53;38.90;;;;;;;;;;13232781;22;20360;-86
2024/02/17 11:03:24;;;;;;;68.10;39.50;;;;;;;;;;13228789;22;20368;-85
2024/02/17 11:08:27;;;;;;;74.30;39.28;;;;;;;;;;13231002;22;20777;-85
2024/02/17 11:13:29;;;;;;;76.57;41.65;;;;;;;;;;13229567;22;20380;-85
2024/02/17 11:18:36;;;;;;;83.75;43.53;;;;;;;;;;13229932;22;20417;-85
2024/02/17 11:23:40;;;;;;;76.82;41.90;;;;;;;;;;13234878;22;20372;-86
2024/02/17 11:28:42;;;;;;;75.87;42.67;;;;;;;;;;13230332;22;20379;-89
2024/02/17 11:33:48;;;;;;;77.68;41.70;;;;;;;;;;13234866;22;21103;-86
2024/02/17 11:38:51;;;;;;;74.10;41.13;;;;;;;;;;13230674;22;20376;-85
2024/02/17 11:43:55;;;;;;;72.43;40.13;;;;;;;;;;13229223;22;20409;-87
2024/02/17 11:49:08;;;;;;;76.73;41.73;;;;;;;;;;13250199;22;20866;-85
2024/02/17 11:54:11;;;;;;;73.03;39.80;;;;;;;;;;13227444;22;20401;-87
2024/02/17 11:59:16;;;;;;;69.93;39.17;;;;;;;;;;13220021;22;20352;-82
2024/02/17 12:04:21;;;;;;;66.85;35.55;;;;;;;;;;13219371;22;20380;-82
2024/02/17 12:09:23;;;;;;;63.00;35.07;;;;;;;;;;13224704;22;20364;-87
2024/02/17 12:14:26;;;;;;;60.20;33.37;;;;;;;;;;13227016;22;20367;-81
2024/02/17 12:19:30;;;;;;;60.72;33.70;;;;;;;;;;13225567;22;20367;-85
2024/02/17 12:24:33;;;;;;;55.33;32.80;;;;;;;;;;13224877;22;20432;-85
2024/02/17 12:29:35;;;;;;;60.95;35.25;;;;;;;;;;13240427;22;20368;-84
2024/02/17 12:34:39;;;;;;;63.58;34.83;;;;;;;;;;13242763;22;20355;-85
2024/02/17 12:39:42;;;;;;;59.33;34.47;;;;;;;;;;13240532;22;20444;-88
2024/02/17 12:44:44;;;;;;;64.07;35.63;;;;;;;;;;13232192;22;20375;-88
2024/02/17 12:49:48;;;;;;;64.10;36.27;;;;;;;;;;13244879;22;20922;-87
2024/02/17 12:54:53;;;;;;;65.22;34.72;;;;;;;;;;13235305;22;20444;-88
2024/02/17 12:59:56;;;;;;;62.92;33.67;;;;;;;;;;13233077;22;20360;-88
2024/02/17 13:04:59;;;;;;;62.05;35.10;;;;;;;;;;13242963;22;20379;-88
2024/02/17 13:10:04;;;;;;;61.78;35.80;;;;;;;;;;13227947;22;20364;-85
2024/02/17 13:15:08;;;;;;;65.10;37.83;;;;;;;;;;13230159;22;20368;-85
2024/02/17 13:20:13;;;;;;;68.27;37.07;;;;;;;;;;13229380;22;20677;-85
2024/02/17 13:25:15;;;;;;;57.92;33.33;;;;;;;;;;13229961;22;20384;-85
2024/02/17 13:30:18;;;;;;;59.60;34.30;;;;;;;;;;13229945;22;20376;-85
2024/02/17 13:35:22;;;;;;;57.90;35.55;;;;;;;;;;13230552;22;20813;-84
2024/02/17 13:40:24;;;;;;;54.78;33.17;;;;;;;;;;13232653;22;20372;-83
2024/02/17 13:45:27;;;;;;;58.27;35.47;;;;;;;;;;13232091;22;21007;-87
2024/02/17 13:50:30;;;;;;;66.38;38.67;;;;;;;;;;13231386;22;20376;-89
2024/02/17 13:55:33;;;;;;;61.28;38.53;;;;;;;;;;13235789;22;20459;-87
2024/02/17 14:00:36;;;;;;;67.07;40.20;;;;;;;;;;13260088;22;20373;-89
2024/02/17 14:05:40;;;;;;;71.47;43.00;;;;;;;;;;13274737;22;20394;-88
2024/02/17 14:10:42;;;;;;;72.05;42.78;;;;;;;;;;13247323;22;21388;-88
2024/02/17 14:15:44;;;;;;;73.00;43.42;;;;;;;;;;13237266;22;20699;-89
2024/02/17 14:20:48;;;;;;;70.38;42.60;;;;;;;;;;13257212;22;20864;-89
2024/02/17 14:25:50;;;;;;;73.90;44.67;;;;;;;;;;13236396;22;20705;-87
2024/02/17 14:30:53;;;;;;;75.18;44.08;;;;;;;;;;13231030;22;20368;-83
2024/02/17 14:35:57;;;;;;;76.95;45.72;;;;;;;;;;13230267;22;20379;-85
2024/02/17 14:41:00;;;;;;;72.07;44.58;;;;;;;;;;13230737;22;20828;-86
2024/02/17 14:46:02;;;;;;;74.03;45.15;;;;;;;;;;13223657;22;20475;-85
2024/02/17 14:51:07;;;;;;;76.57;45.50;;;;;;;;;;13226783;22;20372;-86
2024/02/17 14:56:09;;;;;;;73.43;44.92;;;;;;;;;;13227129;22;20360;-85
2024/02/17 15:01:16;;;;;;;79.50;46.47;;;;;;;;;;13229528;22;20356;-84
2024/02/17 15:06:20;;;;;;;79.45;46.90;;;;;;;;;;13228098;22;20421;-85
2024/02/17 15:11:22;;;;;;;83.75;47.15;;;;;;;;;;13227992;22;20379;-85
2024/02/17 15:16:25;;;;;;;82.03;46.88;;;;;;;;;;13236571;22;20815;-85
2024/02/17 15:21:29;;;;;;;82.53;47.07;;;;;;;;;;13235101;22;20940;-84
2024/02/17 15:26:32;;;;;;;80.35;45.47;;;;;;;;;;13230196;22;20371;-85
2024/02/17 15:31:34;;;;;;;77.72;43.45;;;;;;;;;;13230684;22;20371;-83
2024/02/17 15:36:38;;;;;;;71.18;40.88;;;;;;;;;;13232699;22;21046;-87
2024/02/17 15:41:40;;;;;;;72.87;40.27;;;;;;;;;;13230405;22;21065;-88
2024/02/17 15:46:43;;;;;;;72.05;38.63;;;;;;;;;;13225965;22;20935;-84
2024/02/17 15:51:47;;;;;;;64.75;34.90;;;;;;;;;;13224867;22;20356;-83
2024/02/17 15:56:49;;;;;;;57.87;32.97;;;;;;;;;;13227424;22;20364;-84
2024/02/17 16:01:53;;;;;;;63.13;32.95;;;;;;;;;;13228347;22;20372;-84
2024/02/17 16:06:56;;;;;;;59.25;32.35;;;;;;;;;;13230376;22;20371;-87
2024/02/17 16:11:59;;;;;;;62.47;32.87;;;;;;;;;;13237512;22;20364;-87
2024/02/17 16:17:01;;;;;;;61.97;34.07;;;;;;;;;;13230355;22;20412;-84
2024/02/17 16:22:05;;;;;;;67.18;34.58;;;;;;;;;;13227541;22;20363;-84
2024/02/17 16:27:07;;;;;;;61.77;34.27;;;;;;;;;;13226001;22;20384;-84
2024/02/17 16:32:09;;;;;;;64.30;34.05;;;;;;;;;;13225846;22;20392;-84
2024/02/17 16:37:13;;;;;;;72.63;37.17;;;;;;;;;;13227707;22;20908;-83
2024/02/17 16:42:16;;;;;;;67.53;34.47;;;;;;;;;;13244834;22;20368;-85
2024/02/17 16:47:18;;;;;;;66.43;36.08;;;;;;;;;;13225831;22;20405;-85
2024/02/17 16:52:22;;;;;;;79.13;40.13;;;;;;;;;;13229029;22;20352;-85
2024/02/17 16:57:24;;;;;;;69.13;37.70;;;;;;;;;;13221538;22;20367;-86
2024/02/17 17:02:26;;;;;;;71.28;38.45;;;;;;;;;;13226734;22;21233;-86
2024/02/17 17:07:30;;;;;;;70.68;37.45;;;;;;;;;;13228821;22;20409;-87
2024/02/17 17:12:33;;;;;;;72.25;39.13;;;;;;;;;;13230593;22;20847;-85
2024/02/17 17:17:35;;;;;;;67.97;37.00;;;;;;;;;;13231571;22;20368;-86
2024/02/17 17:22:39;;;;;;;75.05;37.97;;;;;;;;;;13230726;22;20372;-85
2024/02/17 17:27:41;;;;;;;70.47;37.72;;;;;;;;;;13231059;22;20437;-85
2024/02/17 17:32:44;;;;;;;87.22;45.13;;;;;;;;;;13237527;22;20352;-86
2024/02/17 17:37:48;;;;;;;75.88;43.13;;;;;;;;;;13243016;22;20836;-88
2024/02/17 17:42:50;;;;;;;83.43;43.10;;;;;;;;;;13242377;22;20896;-88
2024/02/17 17:47:52;;;;;;;78.05;42.92;;;;;;;;;;13240691;22;20677;-88
2024/02/17 17:52:56;;;;;;;75.32;41.92;;;;;;;;;;13270665;22;20367;-88
2024/02/17 17:57:59;;;;;;;83.00;43.93;;;;;;;;;;13245188;22;20401;-88
2024/02/17 18:03:01;;;;;;;85.65;44.97;;;;;;;;;;13242901;22;20352;-89
2024/02/17 18:08:06;;;;;;;85.82;43.92;;;;;;;;;;13264247;22;20871;-88
2024/02/17 18:13:08;;;;;;;81.40;42.03;;;;;;;;;;13244858;22;20912;-88
2024/02/17 18:18:11;;;;;;;83.90;43.15;;;;;;;;;;13267676;22;20381;-88
2024/02/17 18:23:20;;;;;;;81.38;44.20;;;;;;;;;;13243795;22;20888;-88
2024/02/17 18:28:22;;;;;;;85.22;45.40;;;;;;;;;;13243846;22;20641;-88
2024/02/17 18:33:25;;;;;;;89.05;46.30;;;;;;;;;;13243756;22;20393;-88
2024/02/17 18:38:28;;;;;;;86.03;45.80;;;;;;;;;;13244787;22;20348;-88
2024/02/17 18:43:31;;;;;;;92.47;46.10;;;;;;;;;;13267492;22;20417;-88
2024/02/17 18:48:33;;;;;;;92.53;46.25;;;;;;;;;;13242961;22;20376;-88
2024/02/17 18:53:38;;;;;;;96.43;49.15;;;;;;;;;;13243508;22;20360;-87
2024/02/17 18:58:46;;;;;;;99.30;49.25;;;;;;;;;;13243791;22;20378;-89
2024/02/17 19:03:49;;;;;;;101.35;49.70;;;;;;;;;;13244671;22;20364;-89
2024/02/17 19:08:53;;;;;;;103.95;50.72;;;;;;;;;;13276083;22;20851;-87
2024/02/17 19:13:55;;;;;;;104.85;53.75;;;;;;;;;;13250835;22;20360;-88
2024/02/17 19:18:58;;;;;;;104.18;54.92;;;;;;;;;;13265976;22;20428;-87
2024/02/17 19:24:02;;;;;;;104.18;53.50;;;;;;;;;;13262154;22;20728;-88
2024/02/17 19:29:05;;;;;;;117.50;58.63;;;;;;;;;;13265090;22;20842;-88
2024/02/17 19:34:07;;;;;;;117.87;58.37;;;;;;;;;;13265555;22;20907;-88
2024/02/17 19:39:11;;;;;;;114.68;57.53;;;;;;;;;;13257672;22;20360;-87
2024/02/17 19:44:14;;;;;;;122.03;57.22;;;;;;;;;;13264849;22;20355;-88
2024/02/17 19:49:16;;;;;;;124.38;61.20;;;;;;;;;;13242593;22;20379;-88
2024/02/17 19:54:20;;;;;;;136.75;70.45;;;;;;;;;;13242396;22;20356;-88
2024/02/17 19:59:22;;;;;;;135.90;68.47;;;;;;;;;;13287275;22;20882;-88
2024/02/17 20:04:25;;;;;;;165.90;85.38;;;;;;;;;;13261908;22;20385;-88
2024/02/17 20:09:28;;;;;;;151.37;80.73;;;;;;;;;;13242719;22;20406;-88
2024/02/17 20:14:32;;;;;;;143.00;69.88;;;;;;;;;;13242326;22;20684;-88
2024/02/17 20:19:34;;;;;;;136.32;70.65;;;;;;;;;;13265274;22;20795;-88
2024/02/17 20:24:38;;;;;;;134.60;70.15;;;;;;;;;;13271012;22;20352;-87
2024/02/17 20:29:40;;;;;;;131.80;66.00;;;;;;;;;;13251313;22;20371;-88
2024/02/17 20:34:43;;;;;;;126.07;63.20;;;;;;;;;;13242730;22;20670;-88
2024/02/17 20:39:46;;;;;;;118.95;58.83;;;;;;;;;;13260628;22;20424;-88
2024/02/17 20:44:49;;;;;;;124.33;61.50;;;;;;;;;;13241997;22;20368;-88
2024/02/17 20:49:52;;;;;;;119.30;58.63;;;;;;;;;;13243902;22;20802;-88
2024/02/17 20:54:56;;;;;;;123.97;60.60;;;;;;;;;;13246363;22;20854;-88
2024/02/17 20:59:58;;;;;;;120.53;59.78;;;;;;;;;;13246906;22;20417;-88
2024/02/17 21:05:02;;;;;;;121.63;61.25;;;;;;;;;;13268795;22;20355;-89
2024/02/17 21:10:07;;;;;;;131.50;63.42;;;;;;;;;;13245716;22;20375;-88
2024/02/17 21:15:10;;;;;;;123.07;60.03;;;;;;;;;;13268769;22;20531;-88
2024/02/17 21:20:13;;;;;;;122.50;61.67;;;;;;;;;;13245650;22;20422;-88
2024/02/17 21:25:17;;;;;;;121.68;61.83;;;;;;;;;;13267741;22;20352;-88
2024/02/17 21:30:20;;;;;;;146.63;71.90;;;;;;;;;;13246933;22;20376;-88
2024/02/17 21:35:22;;;;;;;142.35;72.95;;;;;;;;;;13245487;22;20352;-88
2024/02/17 21:40:26;;;;;;;146.05;72.60;;;;;;;;;;13266930;22;20820;-89
2024/02/17 21:45:29;;;;;;;170.23;84.00;;;;;;;;;;13258240;22;20360;-88
2024/02/17 21:50:32;;;;;;;190.55;91.15;;;;;;;;;;13244710;22;20428;-88
2024/02/17 21:55:36;;;;;;;175.47;85.70;;;;;;;;;;13284283;22;20900;-88
2024/02/17 22:00:38;;;;;;;165.57;82.88;;;;;;;;;;13245048;22;20547;-88
2024/02/17 22:05:41;;;;;;;156.00;79.07;;;;;;;;;;13245492;22;20397;-88
2024/02/17 22:10:46;;;;;;;156.57;76.23;;;;;;;;;;13244038;22;20440;-88
2024/02/17 22:15:48;;;;;;;151.38;76.65;;;;;;;;;;13244248;22;20356;-87
2024/02/17 22:20:51;;;;;;;150.55;74.85;;;;;;;;;;13245327;22;20356;-88
2024/02/17 22:25:54;;;;;;;156.35;75.95;;;;;;;;;;13243900;22;20826;-88
2024/02/17 22:30:57;;;;;;;154.43;80.18;;;;;;;;;;13244187;22;20383;-88
2024/02/17 22:35:59;;;;;;;156.97;78.90;;;;;;;;;;13244723;22;20360;-87
2024/02/17 22:41:03;;;;;;;167.63;82.47;;;;;;;;;;13244004;22;20364;-88
2024/02/17 22:46:05;;;;;;;164.43;84.03;;;;;;;;;;13245077;22;20411;-88
2024/02/17 22:51:08;;;;;;;167.82;81.45;;;;;;;;;;13243865;22;20409;-88
2024/02/17 22:56:14;;;;;;;168.90;83.82;;;;;;;;;;13264514;22;20389;-89
2024/02/17 23:01:16;;;;;;;165.13;82.72;;;;;;;;;;13259835;22;20389;-87
2024/02/17 23:06:20;;;;;;;159.30;81.43;;;;;;;;;;13244059;22;20440;-88
2024/02/17 23:11:24;;;;;;;158.57;80.38;;;;;;;;;;13280501;22;20894;-88
2024/02/17 23:16:28;;;;;;;155.63;80.70;;;;;;;;;;13252917;22;20352;-87
2024/02/17 23:21:30;;;;;;;149.13;73.72;;;;;;;;;;13236460;22;20363;-87
2024/02/17 23:26:34;;;;;;;155.50;78.97;;;;;;;;;;13236957;22;20363;-87
2024/02/17 23:31:36;;;;;;;151.67;77.60;;;;;;;;;;13227705;22;21067;-87
2024/02/17 23:36:38;;;;;;;157.93;81.57;;;;;;;;;;13234627;22;20360;-85
2024/02/17 23:41:43;;;;;;;161.13;81.63;;;;;;;;;;13252728;22;20363;-87
2024/02/17 23:46:45;;;;;;;158.60;77.85;;;;;;;;;;13250791;22;20347;-87
2024/02/17 23:51:48;;;;;;;148.52;79.65;;;;;;;;;;13233724;22;20830;-85
2024/02/17 23:56:52;;;;;;;156.20;78.07;;;;;;;;;;13236692;22;20812;-86
